createdAt,value
2023-02-19T00:02:11.073Z,76.66
2023-02-19T00:04:41.146Z,75.85
2023-02-19T00:07:09.547Z,75.47
2023-02-19T00:09:37.964Z,75.99
2023-02-19T00:12:07.164Z,76.15
2023-02-19T00:14:35.657Z,75.23
2023-02-19T00:17:04.094Z,75.19
2023-02-19T00:19:32.932Z,74.73
2023-02-19T00:22:02.809Z,74.73
2023-02-19T00:24:31.242Z,74.82
2023-02-19T00:26:59.707Z,75.00
2023-02-19T00:29:29.011Z,74.39
2023-02-19T00:31:57.797Z,74.17
2023-02-19T00:34:26.750Z,74.46
2023-02-19T00:36:55.204Z,74.38
2023-02-19T00:39:25.040Z,74.36
2023-02-19T00:41:53.668Z,73.85
2023-02-19T00:44:22.364Z,73.51
2023-02-19T00:46:50.840Z,74.37
2023-02-19T00:49:23.381Z,73.84
2023-02-19T00:51:54.247Z,74.39
2023-02-19T00:54:24.466Z,73.48
2023-02-19T00:56:53.295Z,73.94
2023-02-19T00:59:21.774Z,73.81
2023-02-19T01:01:50.802Z,73.67
2023-02-19T01:04:19.213Z,73.40
2023-02-19T01:06:49.001Z,73.35
2023-02-19T01:09:17.433Z,72.95
2023-02-19T01:11:47.770Z,72.68
2023-02-19T01:14:16.160Z,72.48
2023-02-19T01:16:44.736Z,72.14
2023-02-19T01:19:16.048Z,72.87
2023-02-19T01:21:44.734Z,71.81
2023-02-19T01:24:13.368Z,72.37
2023-02-19T01:26:41.855Z,72.42
2023-02-19T01:29:11.842Z,72.58
2023-02-19T01:31:42.416Z,72.49
2023-02-19T01:34:13.266Z,71.76
2023-02-19T01:36:41.861Z,72.04
2023-02-19T01:39:12.006Z,72.22
2023-02-19T01:41:42.727Z,71.82
2023-02-19T01:45:02.888Z,71.83
2023-02-19T01:47:33.184Z,72.45
2023-02-19T01:50:01.705Z,72.36
2023-02-19T01:52:35.603Z,72.37
2023-02-19T01:55:08.405Z,72.17
2023-02-19T01:57:41.908Z,71.30
2023-02-19T02:00:15.735Z,72.11
2023-02-19T02:02:52.970Z,71.82
2023-02-19T02:05:37.304Z,71.95
2023-02-19T02:08:23.979Z,72.02
2023-02-19T02:10:53.901Z,71.23
2023-02-19T02:13:22.936Z,72.07
2023-02-19T02:16:03.669Z,71.63
2023-02-19T02:18:48.722Z,71.74
2023-02-19T02:21:51.250Z,71.44
2023-02-19T02:24:58.970Z,71.94
2023-02-19T02:27:42.121Z,71.94
2023-02-19T02:30:33.002Z,71.87
2023-02-19T02:33:13.449Z,72.77
2023-02-19T02:35:48.833Z,73.09
2023-02-19T02:38:21.994Z,72.64
2023-02-19T02:40:50.773Z,73.40
2023-02-19T02:43:19.232Z,73.40
2023-02-19T02:45:49.315Z,73.93
2023-02-19T02:48:28.783Z,74.05
2023-02-19T02:51:03.957Z,73.94
2023-02-19T02:53:55.590Z,74.39
2023-02-19T02:56:26.206Z,74.22
2023-02-19T02:58:57.327Z,73.84
2023-02-19T03:01:50.217Z,75.12
2023-02-19T03:04:26.152Z,74.07
2023-02-19T03:06:56.603Z,74.89
2023-02-19T03:09:31.927Z,74.15
2023-02-19T03:12:22.078Z,74.49
2023-02-19T03:15:15.129Z,75.18
2023-02-19T03:18:09.868Z,74.92
2023-02-19T03:20:45.734Z,74.77
2023-02-19T03:23:17.221Z,75.03
2023-02-19T03:26:03.607Z,74.69
2023-02-19T03:28:54.824Z,74.27
2023-02-19T03:31:28.664Z,74.56
2023-02-19T03:34:03.952Z,74.87
2023-02-19T03:36:41.298Z,74.89
2023-02-19T03:39:12.458Z,74.80
2023-02-19T03:41:50.453Z,74.88
2023-02-19T03:44:26.467Z,74.98
2023-02-19T03:47:03.669Z,74.32
2023-02-19T03:49:43.797Z,74.60
2023-02-19T03:52:20.179Z,74.66
2023-02-19T03:54:58.873Z,73.85
2023-02-19T03:57:35.320Z,73.78
2023-02-19T04:00:11.680Z,74.29
2023-02-19T04:02:45.906Z,74.11
2023-02-19T04:05:19.658Z,74.85
2023-02-19T04:07:52.019Z,74.40
2023-02-19T04:10:21.813Z,74.61
2023-02-19T04:12:57.807Z,74.90
2023-02-19T04:15:32.901Z,74.60
2023-02-19T04:18:07.327Z,74.09
2023-02-19T04:20:44.385Z,74.58
2023-02-19T04:23:13.789Z,74.58
2023-02-19T04:25:46.397Z,74.77
2023-02-19T04:28:16.641Z,74.88
2023-02-19T04:30:46.095Z,74.74
2023-02-19T04:33:19.943Z,74.25
2023-02-19T04:35:50.184Z,74.38
2023-02-19T04:38:18.818Z,74.64
2023-02-19T04:40:47.731Z,73.69
2023-02-19T04:43:16.477Z,74.81
2023-02-19T04:45:45.083Z,74.17
2023-02-19T04:48:13.838Z,74.38
2023-02-19T04:50:42.602Z,74.98
2023-02-19T04:53:12.452Z,74.67
2023-02-19T04:55:41.610Z,75.12
2023-02-19T04:58:10.083Z,74.03
2023-02-19T05:00:38.720Z,74.71
2023-02-19T05:03:07.375Z,74.46
2023-02-19T05:05:36.715Z,74.82
2023-02-19T05:08:05.794Z,74.86
2023-02-19T05:10:35.887Z,74.50
2023-02-19T05:13:04.475Z,75.52
2023-02-19T05:15:33.197Z,74.75
2023-02-19T05:18:01.857Z,75.20
2023-02-19T05:20:30.335Z,74.78
2023-02-19T05:22:59.066Z,74.55
2023-02-19T05:25:27.693Z,75.65
2023-02-19T05:28:17.153Z,74.89
2023-02-19T05:30:46.517Z,75.15
2023-02-19T05:33:16.096Z,75.18
2023-02-19T05:35:46.561Z,75.39
2023-02-19T05:38:15.176Z,75.64
2023-02-19T05:40:44.296Z,75.79
2023-02-19T05:43:14.923Z,75.60
2023-02-19T05:45:43.943Z,75.29
2023-02-19T05:48:13.638Z,74.98
2023-02-19T05:50:42.299Z,76.23
2023-02-19T05:53:11.641Z,75.59
2023-02-19T05:55:40.250Z,75.51
2023-02-19T05:58:08.911Z,74.98
2023-02-19T06:00:38.852Z,75.95
2023-02-19T06:03:07.284Z,75.33
2023-02-19T06:05:35.721Z,75.03
2023-02-19T06:08:04.230Z,74.84
2023-02-19T06:10:32.911Z,75.26
2023-02-19T06:13:01.326Z,75.09
2023-02-19T06:15:29.842Z,75.63
2023-02-19T06:17:59.838Z,75.31
2023-02-19T06:20:28.426Z,75.67
2023-02-19T06:22:57.100Z,74.94
2023-02-19T06:25:25.611Z,75.32
2023-02-19T06:27:54.054Z,75.14
2023-02-19T06:30:22.487Z,75.61
2023-02-19T06:32:54.285Z,75.23
2023-02-19T06:35:24.505Z,75.25
2023-02-19T06:37:53.973Z,75.77
2023-02-19T06:40:22.450Z,74.65
2023-02-19T06:42:51.164Z,75.42
2023-02-19T06:45:20.565Z,74.83
2023-02-19T06:47:49.037Z,75.16
2023-02-19T06:50:17.592Z,74.32
2023-02-19T06:52:47.379Z,74.62
2023-02-19T06:55:16.068Z,74.18
2023-02-19T06:57:44.431Z,74.31
2023-02-19T07:00:13.808Z,74.39
2023-02-19T07:02:42.436Z,73.48
2023-02-19T07:05:10.948Z,74.45
2023-02-19T07:07:39.740Z,73.87
2023-02-19T07:10:10.266Z,74.57
2023-02-19T07:12:38.699Z,73.91
2023-02-19T07:15:07.971Z,74.77
2023-02-19T07:17:36.497Z,73.96
2023-02-19T07:20:05.433Z,73.87
2023-02-19T07:22:33.929Z,74.50
2023-02-19T07:25:02.261Z,74.21
2023-02-19T07:27:32.223Z,74.49
2023-02-19T07:30:00.771Z,74.63
2023-02-19T07:32:29.289Z,74.02
2023-02-19T07:34:57.760Z,74.78
2023-02-19T07:37:26.359Z,74.52
2023-02-19T07:39:55.174Z,74.81
2023-02-19T07:42:23.562Z,74.34
2023-02-19T07:44:53.308Z,74.35
2023-02-19T07:47:21.942Z,74.24
2023-02-19T07:49:50.424Z,74.83
2023-02-19T07:52:18.950Z,74.51
2023-02-19T07:54:47.790Z,73.67
2023-02-19T07:57:16.242Z,74.10
2023-02-19T07:59:44.639Z,73.57
2023-02-19T08:02:35.513Z,73.99
2023-02-19T08:05:04.416Z,73.66
2023-02-19T08:07:33.814Z,73.76
2023-02-19T08:10:20.386Z,72.97
2023-02-19T08:13:14.732Z,72.24
2023-02-19T08:15:43.180Z,72.29
2023-02-19T08:18:14.714Z,71.70
2023-02-19T08:20:43.552Z,71.75
2023-02-19T08:23:16.922Z,72.36
2023-02-19T08:25:45.621Z,72.28
2023-02-19T08:28:14.744Z,71.46
2023-02-19T08:30:46.001Z,71.82
2023-02-19T08:33:19.524Z,71.58
2023-02-19T08:35:48.573Z,71.20
2023-02-19T08:38:17.456Z,70.69
2023-02-19T08:40:46.100Z,70.39
2023-02-19T08:43:17.649Z,70.49
2023-02-19T08:45:48.424Z,70.38
2023-02-19T08:48:18.223Z,69.34
2023-02-19T08:50:46.607Z,69.78
2023-02-19T08:53:15.045Z,69.82
2023-02-19T08:55:43.409Z,68.63
2023-02-19T08:58:12.809Z,68.68
2023-02-19T09:00:41.558Z,68.74
2023-02-19T09:03:10.943Z,69.21
2023-02-19T09:05:41.275Z,69.33
2023-02-19T09:08:11.811Z,68.85
2023-02-19T09:10:40.323Z,69.40
2023-02-19T09:13:09.010Z,69.29
2023-02-19T09:15:39.354Z,68.94
2023-02-19T09:18:08.076Z,68.91
2023-02-19T09:20:36.570Z,68.85
2023-02-19T09:23:06.281Z,68.08
2023-02-19T09:25:34.873Z,67.99
2023-02-19T09:28:03.236Z,68.07
2023-02-19T09:30:31.613Z,67.60
2023-02-19T09:33:00.024Z,67.47
2023-02-19T09:35:28.459Z,67.14
2023-02-19T09:37:56.942Z,67.33
2023-02-19T09:40:26.734Z,66.88
2023-02-19T09:42:55.281Z,67.38
2023-02-19T09:45:27.307Z,66.33
2023-02-19T09:47:59.273Z,66.42
2023-02-19T09:50:35.641Z,65.75
2023-02-19T09:53:11.634Z,66.05
2023-02-19T09:55:44.549Z,65.93
2023-02-19T09:58:27.357Z,66.18
2023-02-19T10:00:58.780Z,65.76
2023-02-19T10:03:34.326Z,64.98
2023-02-19T10:06:12.477Z,64.86
2023-02-19T10:08:42.771Z,66.28
2023-02-19T10:11:14.613Z,67.11
2023-02-19T10:13:46.845Z,60.90
2023-02-19T10:16:20.603Z,51.61
2023-02-19T10:18:49.640Z,44.36
2023-02-19T10:21:22.854Z,40.87
2023-02-19T10:23:55.830Z,40.64
2023-02-19T10:26:25.716Z,42.36
2023-02-19T10:28:55.615Z,44.57
2023-02-19T10:31:26.855Z,45.63
2023-02-19T10:33:57.806Z,46.60
2023-02-19T10:36:32.326Z,48.56
2023-02-19T10:39:02.367Z,49.45
2023-02-19T10:41:32.772Z,49.58
2023-02-19T10:44:08.255Z,50.74
2023-02-19T10:46:43.209Z,49.93
2023-02-19T10:49:26.586Z,48.65
2023-02-19T10:51:57.246Z,48.60
2023-02-19T10:54:31.416Z,49.30
2023-02-19T10:57:30.136Z,50.00
2023-02-19T11:00:02.388Z,50.75
2023-02-19T11:02:33.065Z,51.53
2023-02-19T11:05:18.151Z,50.17
2023-02-19T11:07:49.483Z,50.42
2023-02-19T11:10:30.253Z,51.23
2023-02-19T11:13:04.635Z,51.49
2023-02-19T11:15:35.372Z,52.04
2023-02-19T11:18:16.192Z,52.20
2023-02-19T11:20:51.214Z,52.88
2023-02-19T11:23:25.108Z,53.44
2023-02-19T11:25:57.354Z,53.60
2023-02-19T11:28:33.512Z,53.34
2023-02-19T11:31:25.776Z,52.80
2023-02-19T11:33:59.894Z,52.88
2023-02-19T11:36:34.094Z,53.65
2023-02-19T11:39:21.461Z,53.24
2023-02-19T11:42:34.555Z,52.45
2023-02-19T11:45:31.084Z,52.58
2023-02-19T11:48:33.918Z,53.71
2023-02-19T11:51:40.634Z,53.47
2023-02-19T11:54:32.672Z,49.98
2023-02-19T11:57:23.247Z,50.16
2023-02-19T12:00:02.737Z,48.96
2023-02-19T12:03:46.892Z,43.46
2023-02-19T12:06:29.575Z,41.82
2023-02-19T12:09:34.674Z,40.03
2023-02-19T12:12:20.948Z,42.13
2023-02-19T12:15:20.783Z,41.50
2023-02-19T12:18:29.563Z,38.32
2023-02-19T12:21:13.317Z,37.04
2023-02-19T12:24:10.554Z,35.80
2023-02-19T12:26:48.604Z,34.24
2023-02-19T12:29:47.239Z,33.36
2023-02-19T12:32:37.376Z,35.01
2023-02-19T12:35:51.500Z,36.94
2023-02-19T12:38:32.559Z,39.12
2023-02-19T12:41:19.880Z,41.22
2023-02-19T12:43:55.674Z,42.86
2023-02-19T12:46:33.165Z,44.17
2023-02-19T12:49:10.995Z,45.77
2023-02-19T12:51:46.718Z,46.83
2023-02-19T12:54:23.873Z,45.96
2023-02-19T12:57:01.501Z,45.47
2023-02-19T12:59:36.427Z,45.13
2023-02-19T13:02:14.854Z,40.34
2023-02-19T13:04:50.391Z,35.92
2023-02-19T13:07:26.365Z,33.49
2023-02-19T13:09:59.870Z,31.37
2023-02-19T13:12:34.134Z,29.67
2023-02-19T13:15:10.859Z,29.70
2023-02-19T13:17:45.036Z,30.57
2023-02-19T13:20:21.645Z,32.26
2023-02-19T13:23:20.625Z,34.09
2023-02-19T13:26:11.139Z,36.02
2023-02-19T13:29:01.164Z,38.08
2023-02-19T13:32:10.181Z,39.39
2023-02-19T13:34:57.231Z,41.22
2023-02-19T13:37:26.429Z,41.60
2023-02-19T13:40:09.486Z,43.00
2023-02-19T13:42:38.760Z,42.99
2023-02-19T13:45:08.623Z,44.90
2023-02-19T13:48:03.724Z,44.93
2023-02-19T13:50:34.016Z,46.22
2023-02-19T13:53:08.530Z,46.62
2023-02-19T13:55:54.809Z,46.47
2023-02-19T13:58:55.954Z,46.54
2023-02-19T14:02:27.598Z,45.80
2023-02-19T14:05:00.241Z,46.61
2023-02-19T14:08:01.314Z,47.34
2023-02-19T14:11:05.093Z,47.76
2023-02-19T14:14:32.905Z,47.95
2023-02-19T14:17:25.612Z,48.26
2023-02-19T14:20:00.306Z,48.58
2023-02-19T14:23:17.278Z,48.85
2023-02-19T14:25:50.515Z,49.20
2023-02-19T14:28:29.949Z,49.15
2023-02-19T14:31:02.119Z,49.22
2023-02-19T14:33:34.285Z,49.72
2023-02-19T14:36:07.187Z,49.98
2023-02-19T14:38:40.236Z,50.05
2023-02-19T14:41:12.619Z,49.70
2023-02-19T14:43:43.609Z,50.28
2023-02-19T14:46:21.508Z,50.07
2023-02-19T14:48:51.902Z,49.66
2023-02-19T14:51:31.452Z,49.71
2023-02-19T14:54:15.539Z,50.03
2023-02-19T14:56:47.995Z,50.13
2023-02-19T14:59:30.380Z,50.85
2023-02-19T15:02:01.563Z,51.54
2023-02-19T15:04:35.898Z,52.13
2023-02-19T15:07:09.322Z,53.38
2023-02-19T15:09:43.514Z,53.59
2023-02-19T15:12:18.374Z,53.45
2023-02-19T15:14:49.876Z,53.04
2023-02-19T15:17:27.207Z,52.73
2023-02-19T15:19:56.721Z,53.81
2023-02-19T15:22:28.732Z,53.30
2023-02-19T15:24:57.578Z,52.99
2023-02-19T15:27:26.726Z,53.06
2023-02-19T15:29:57.147Z,52.69
2023-02-19T15:32:28.858Z,53.16
2023-02-19T15:34:59.607Z,53.16
2023-02-19T15:37:30.921Z,53.87
2023-02-19T15:40:04.195Z,54.21
2023-02-19T15:42:36.245Z,54.38
2023-02-19T15:45:18.833Z,54.85
2023-02-19T15:47:52.496Z,55.20
2023-02-19T15:50:26.432Z,54.32
2023-02-19T15:53:03.703Z,53.92
2023-02-19T15:55:39.627Z,54.48
2023-02-19T15:58:18.909Z,54.01
2023-02-19T16:00:52.439Z,54.87
2023-02-19T16:03:23.553Z,54.68
2023-02-19T16:06:01.997Z,54.22
2023-02-19T16:08:32.999Z,54.43
2023-02-19T16:11:05.028Z,54.58
2023-02-19T16:13:35.501Z,54.49
2023-02-19T16:16:16.618Z,55.46
2023-02-19T16:18:47.858Z,55.17
2023-02-19T16:21:21.501Z,55.03
2023-02-19T16:23:54.925Z,54.46
2023-02-19T16:26:24.080Z,54.91
2023-02-19T16:28:54.608Z,54.83
2023-02-19T16:31:25.675Z,55.03
2023-02-19T16:33:54.201Z,54.54
2023-02-19T16:36:43.566Z,54.76
2023-02-19T16:39:23.489Z,54.75
2023-02-19T16:42:19.589Z,54.82
2023-02-19T16:44:49.532Z,54.50
2023-02-19T16:47:36.143Z,55.12
2023-02-19T16:50:14.134Z,55.30
2023-02-19T16:52:52.996Z,54.70
2023-02-19T16:55:23.441Z,54.82
2023-02-19T16:57:52.324Z,54.33
2023-02-19T17:00:23.381Z,54.59
2023-02-19T17:02:56.890Z,54.22
2023-02-19T17:05:28.822Z,54.05
2023-02-19T17:07:57.334Z,54.44
2023-02-19T17:10:29.023Z,54.80
2023-02-19T17:12:58.033Z,54.41
2023-02-19T17:15:26.553Z,54.45
2023-02-19T17:17:56.460Z,53.86
2023-02-19T17:20:30.403Z,53.97
2023-02-19T17:23:01.489Z,53.68
2023-02-19T17:25:29.980Z,53.34
2023-02-19T17:27:58.368Z,53.41
2023-02-19T17:30:31.898Z,53.62
2023-02-19T17:33:03.532Z,53.04
2023-02-19T17:35:31.974Z,52.54
2023-02-19T17:38:00.752Z,53.11
2023-02-19T17:40:33.853Z,52.92
2023-02-19T17:43:03.185Z,53.24
2023-02-19T17:45:31.728Z,53.11
2023-02-19T17:48:02.155Z,52.84
2023-02-19T17:50:33.393Z,52.01
2023-02-19T17:53:02.082Z,51.65
2023-02-19T17:55:30.541Z,52.15
2023-02-19T17:57:59.150Z,51.84
2023-02-19T18:00:31.752Z,51.58
2023-02-19T18:03:01.677Z,51.97
2023-02-19T18:05:30.140Z,51.26
2023-02-19T18:07:58.584Z,51.91
2023-02-19T18:10:27.007Z,51.91
2023-02-19T18:12:55.459Z,51.32
2023-02-19T18:15:26.907Z,51.72
2023-02-19T18:17:56.687Z,51.65
2023-02-19T18:20:28.788Z,52.09
2023-02-19T18:22:58.414Z,51.43
2023-02-19T18:25:27.683Z,51.61
2023-02-19T18:27:56.651Z,52.08
2023-02-19T18:30:25.335Z,52.05
2023-02-19T18:32:53.819Z,51.66
2023-02-19T18:35:23.117Z,52.07
2023-02-19T18:37:54.275Z,52.33
2023-02-19T18:40:25.904Z,51.85
2023-02-19T18:42:54.563Z,52.73
2023-02-19T18:45:23.012Z,52.65
2023-02-19T18:47:51.797Z,52.60
2023-02-19T18:50:21.179Z,52.54
2023-02-19T18:52:49.704Z,52.06
2023-02-19T18:55:20.645Z,52.32
2023-02-19T18:57:50.190Z,52.65
2023-02-19T19:00:22.817Z,53.10
2023-02-19T19:02:51.866Z,52.89
2023-02-19T19:05:23.238Z,52.58
2023-02-19T19:07:52.960Z,52.24
2023-02-19T19:10:24.115Z,52.56
2023-02-19T19:12:54.188Z,52.52
2023-02-19T19:15:24.095Z,52.36
2023-02-19T19:17:52.870Z,52.42
2023-02-19T19:20:24.666Z,52.13
2023-02-19T19:22:54.265Z,52.94
2023-02-19T19:25:24.460Z,52.58
2023-02-19T19:27:56.650Z,53.44
2023-02-19T19:30:25.362Z,52.65
2023-02-19T19:32:54.134Z,53.60
2023-02-19T19:35:23.678Z,53.86
2023-02-19T19:37:52.092Z,53.75
2023-02-19T19:40:21.178Z,53.66
2023-02-19T19:42:54.246Z,54.24
2023-02-19T19:45:22.877Z,54.18
2023-02-19T19:47:52.932Z,54.51
2023-02-19T19:50:22.256Z,54.22
2023-02-19T19:52:50.758Z,53.31
2023-02-19T19:55:21.430Z,54.30
2023-02-19T19:57:50.387Z,53.78
2023-02-19T20:00:23.634Z,53.91
2023-02-19T20:02:52.211Z,54.05
2023-02-19T20:05:20.863Z,54.29
2023-02-19T20:07:49.674Z,54.46
2023-02-19T20:10:20.052Z,54.29
2023-02-19T20:12:48.930Z,53.23
2023-02-19T20:15:23.756Z,54.27
2023-02-19T20:17:52.528Z,53.93
2023-02-19T20:20:22.866Z,53.38
2023-02-19T20:22:52.970Z,53.61
2023-02-19T20:25:23.901Z,53.46
2023-02-19T20:27:53.385Z,54.15
2023-02-19T20:30:25.709Z,53.47
2023-02-19T20:32:54.618Z,53.84
2023-02-19T20:35:26.566Z,54.16
2023-02-19T20:37:55.711Z,54.95
2023-02-19T20:40:30.535Z,54.96
2023-02-19T20:43:00.925Z,54.92
2023-02-19T20:45:32.258Z,55.10
2023-02-19T20:48:00.981Z,55.41
2023-02-19T20:50:29.475Z,54.56
2023-02-19T20:52:58.150Z,55.39
2023-02-19T20:55:26.727Z,54.73
2023-02-19T20:57:57.417Z,55.36
2023-02-19T21:00:26.013Z,55.36
2023-02-19T21:02:55.967Z,54.96
2023-02-19T21:05:24.631Z,55.65
2023-02-19T21:07:52.994Z,55.32
2023-02-19T21:10:21.374Z,55.66
2023-02-19T21:12:50.688Z,56.08
2023-02-19T21:15:21.706Z,55.52
2023-02-19T21:17:50.815Z,55.82
2023-02-19T21:20:21.133Z,55.38
2023-02-19T21:22:49.609Z,55.78
2023-02-19T21:25:18.365Z,55.72
2023-02-19T21:27:56.534Z,56.32
2023-02-19T21:30:25.069Z,56.19
2023-02-19T21:32:53.516Z,56.41
2023-02-19T21:35:23.332Z,56.20
2023-02-19T21:37:51.915Z,56.60
2023-02-19T21:40:22.060Z,55.93
2023-02-19T21:42:50.473Z,56.99
2023-02-19T21:45:19.034Z,56.88
2023-02-19T21:47:47.902Z,56.80
2023-02-19T21:50:16.304Z,56.89
2023-02-19T21:52:46.096Z,57.49
2023-02-19T21:55:14.560Z,57.23
2023-02-19T21:57:43.127Z,57.67
2023-02-19T22:00:13.531Z,57.88
2023-02-19T22:02:43.134Z,57.67
2023-02-19T22:05:11.759Z,57.74
2023-02-19T22:07:40.355Z,58.59
2023-02-19T22:10:12.006Z,58.73
2023-02-19T22:12:40.529Z,58.82
2023-02-19T22:15:09.948Z,58.69
2023-02-19T22:17:38.470Z,59.29
2023-02-19T22:20:08.862Z,59.19
2023-02-19T22:22:37.292Z,60.12
2023-02-19T22:25:06.336Z,59.98
2023-02-19T22:27:36.450Z,59.95
2023-02-19T22:30:06.048Z,60.44
2023-02-19T22:32:34.858Z,60.46
2023-02-19T22:35:03.287Z,60.85
2023-02-19T22:37:31.646Z,60.74
2023-02-19T22:40:00.159Z,61.04
2023-02-19T22:42:29.464Z,61.08
2023-02-19T22:44:59.522Z,61.28
2023-02-19T22:47:29.020Z,61.85
2023-02-19T22:49:57.411Z,61.82
2023-02-19T22:52:28.137Z,62.34
2023-02-19T22:54:56.821Z,62.66
2023-02-19T22:57:25.243Z,62.70
2023-02-19T22:59:53.643Z,62.53
2023-02-19T23:02:23.407Z,62.86
2023-02-19T23:04:51.960Z,62.62
2023-02-19T23:07:22.974Z,63.34
2023-02-19T23:09:51.417Z,63.29
2023-02-19T23:12:19.850Z,63.40
2023-02-19T23:14:48.447Z,63.56
2023-02-19T23:17:16.861Z,63.51
2023-02-19T23:19:47.173Z,64.19
2023-02-19T23:22:15.789Z,63.86
2023-02-19T23:24:44.197Z,64.31
2023-02-19T23:27:12.708Z,63.75
2023-02-19T23:29:41.193Z,64.07
2023-02-19T23:32:09.715Z,64.14
2023-02-19T23:34:38.192Z,64.50
2023-02-19T23:37:08.098Z,65.36
2023-02-19T23:39:36.550Z,65.50
2023-02-19T23:42:05.135Z,66.31
2023-02-19T23:44:33.598Z,65.95
2023-02-19T23:47:02.049Z,67.14
2023-02-19T23:49:30.659Z,67.68
2023-02-19T23:51:59.184Z,67.97
2023-02-19T23:54:31.577Z,68.33
2023-02-19T23:57:00.301Z,67.77
2023-02-19T23:59:28.750Z,68.03
